Time;durP1;ratioP1;P1;durP2;ratioP2;P2;SDS_P1;SDS_P2;PMS_P1;PMS_P2;Temp;Humidity;BMP_temperature;BMP_pressure;BME280_temperature;BME280_humidity;BME280_pressure;Samples;Min_cycle;Max_cycle;Signal;HPM_P1;HPM_P2
2023/03/23 00:02:23;;;;;;;2.87;2.20;;;15.70;1.00;;;;;;5032741;28;20973;-72
2023/03/23 00:04:49;;;;;;;2.53;2.23;;;15.70;1.00;;;;;;5031851;28;20989;-72
2023/03/23 00:07:20;;;;;;;4.97;2.13;;;15.70;1.00;;;;;;5032244;28;20919;-71
2023/03/23 00:09:47;;;;;;;5.03;2.17;;;15.70;1.00;;;;;;5031252;28;20479;-72
2023/03/23 00:12:15;;;;;;;3.90;2.17;;;15.70;1.00;;;;;;5036839;28;20503;-72
2023/03/23 00:14:41;;;;;;;2.70;2.23;;;15.70;1.00;;;;;;5030662;28;20443;-70
2023/03/23 00:17:10;;;;;;;2.00;1.80;;;15.70;1.00;;;;;;5030447;28;20429;-71
2023/03/23 00:19:45;;;;;;;2.80;2.03;;;15.70;1.00;;;;;;5031729;28;20523;-72
2023/03/23 00:22:12;;;;;;;2.53;1.93;;;15.70;1.00;;;;;;5032020;28;20932;-71
2023/03/23 00:24:37;;;;;;;4.27;2.13;;;15.70;1.00;;;;;;5031709;28;20429;-72
2023/03/23 00:27:03;;;;;;;3.53;1.90;;;15.70;1.00;;;;;;5034993;28;20440;-71
2023/03/23 00:29:29;;;;;;;2.50;1.90;;;15.60;1.00;;;;;;5029957;28;20644;-71
2023/03/23 00:31:56;;;;;;;5.70;1.70;;;15.60;1.00;;;;;;5031254;28;20178;-71
2023/03/23 00:34:24;;;;;;;3.23;1.70;;;15.60;1.00;;;;;;5031658;28;21929;-70
2023/03/23 00:36:53;;;;;;;2.63;2.00;;;15.60;1.00;;;;;;5031082;28;20972;-71
2023/03/23 00:39:18;;;;;;;2.20;1.67;;;17.20;1.00;;;;;;5031726;28;20440;-72
2023/03/23 00:41:45;;;;;;;5.20;1.83;;;15.70;1.00;;;;;;5030662;28;20548;-71
2023/03/23 00:44:16;;;;;;;3.60;1.90;;;15.60;1.00;;;;;;5031306;28;20220;-71
2023/03/23 00:46:48;;;;;;;3.80;2.23;;;15.60;1.00;;;;;;5034613;28;20440;-71
2023/03/23 00:49:15;;;;;;;4.30;2.10;;;15.50;1.00;;;;;;5031422;28;20440;-72
2023/03/23 00:51:41;;;;;;;2.70;1.90;;;15.50;1.00;;;;;;5031092;28;20556;-72
2023/03/23 00:54:07;;;;;;;2.57;2.10;;;15.50;1.00;;;;;;5031451;28;20423;-72
2023/03/23 00:56:33;;;;;;;2.73;1.80;;;15.40;1.00;;;;;;5031454;28;20914;-71
2023/03/23 00:58:59;;;;;;;2.57;1.70;;;15.40;1.00;;;;;;5029585;28;20605;-71
2023/03/23 01:01:24;;;;;;;2.10;1.60;;;15.40;1.00;;;;;;5030564;28;20188;-71
2023/03/23 01:03:50;;;;;;;3.23;2.10;;;15.40;1.00;;;;;;5030878;28;20243;-71
2023/03/23 01:06:15;;;;;;;2.40;1.97;;;15.50;1.00;;;;;;5031278;28;20239;-72
2023/03/23 01:08:45;;;;;;;2.53;1.60;;;15.50;1.00;;;;;;5031650;28;20224;-72
2023/03/23 01:11:15;;;;;;;2.07;1.77;;;15.00;1.00;;;;;;5023000;28;20213;-71
2023/03/23 01:13:42;;;;;;;2.13;1.90;;;15.40;1.00;;;;;;5030871;28;20424;-71
2023/03/23 01:16:10;;;;;;;2.40;1.80;;;15.40;1.00;;;;;;5030560;28;20479;-71
2023/03/23 01:18:35;;;;;;;5.10;2.10;;;15.30;1.00;;;;;;5029679;28;20951;-71
2023/03/23 01:21:10;;;;;;;2.40;1.90;;;15.30;1.00;;;;;;5030158;28;20448;-71
2023/03/23 01:23:37;;;;;;;9.60;2.30;;;15.30;1.00;;;;;;5030241;28;20211;-72
2023/03/23 01:26:11;;;;;;;2.73;2.10;;;15.40;1.00;;;;;;5030297;28;20478;-72
2023/03/23 01:29:33;;;;;;;4.10;2.80;;;15.10;1.00;;;;;;5027471;28;20451;-70
2023/03/23 01:31:58;;;;;;;3.43;2.60;;;15.10;1.00;;;;;;5029397;28;20436;-70
2023/03/23 01:34:24;;;;;;;2.83;2.00;;;15.00;1.00;;;;;;5030240;28;20432;-71
2023/03/23 01:36:49;;;;;;;1.90;1.67;;;15.00;1.00;;;;;;5029251;28;20190;-70
2023/03/23 01:39:15;;;;;;;3.00;2.20;;;15.00;1.00;;;;;;5027623;28;20588;-71
2023/03/23 01:41:41;;;;;;;3.10;2.10;;;15.00;1.00;;;;;;5029945;28;20648;-71
2023/03/23 01:44:15;;;;;;;5.30;2.07;;;15.10;1.00;;;;;;5030015;28;20200;-72
2023/03/23 01:46:40;;;;;;;4.57;2.27;;;15.10;1.00;;;;;;5033346;28;20291;-71
2023/03/23 01:49:13;;;;;;;2.93;1.80;;;15.10;1.00;;;;;;5030289;28;20456;-71
2023/03/23 01:51:49;;;;;;;2.20;2.00;;;15.10;1.00;;;;;;5030232;28;20210;-71
2023/03/23 01:54:19;;;;;;;2.93;2.00;;;15.00;1.00;;;;;;5022626;28;20420;-71
2023/03/23 01:56:50;;;;;;;4.77;2.40;;;15.00;1.00;;;;;;5029714;28;20563;-68
2023/03/23 01:59:16;;;;;;;3.90;2.67;;;15.00;1.00;;;;;;5030145;28;20440;-71
2023/03/23 02:01:44;;;;;;;2.83;2.23;;;15.00;1.00;;;;;;5030133;28;20442;-71
2023/03/23 02:04:13;;;;;;;3.13;2.17;;;14.90;1.00;;;;;;5021766;28;20178;-71
2023/03/23 02:06:38;;;;;;;5.03;2.50;;;14.90;1.00;;;;;;5029501;28;20424;-70
2023/03/23 02:09:06;;;;;;;3.50;2.43;;;14.90;1.00;;;;;;5029431;28;20456;-71
2023/03/23 02:11:32;;;;;;;4.57;3.03;;;14.90;1.00;;;;;;5029550;28;20198;-71
2023/03/23 02:13:58;;;;;;;4.33;2.33;;;14.90;1.00;;;;;;5029372;28;20504;-70
2023/03/23 02:16:33;;;;;;;3.80;2.47;;;14.90;1.00;;;;;;5029297;28;20425;-71
2023/03/23 02:19:23;;;;;;;4.80;2.30;;;14.70;1.00;;;;;;5029237;28;20177;-70
2023/03/23 02:22:12;;;;;;;2.10;1.70;;;14.70;1.00;;;;;;5028796;28;20429;-70
2023/03/23 02:25:08;;;;;;;2.40;1.77;;;14.60;1.00;;;;;;5029760;28;20824;-71
2023/03/23 02:28:05;;;;;;;2.50;1.93;;;14.60;1.00;;;;;;5029493;28;20922;-72
2023/03/23 02:31:11;;;;;;;2.80;2.00;;;14.60;1.00;;;;;;5028897;28;20545;-71
2023/03/23 02:34:04;;;;;;;3.33;2.37;;;14.70;1.00;;;;;;5035457;28;20455;-70
2023/03/23 02:36:43;;;;;;;3.33;1.80;;;14.70;1.00;;;;;;5024239;28;20437;-70
2023/03/23 02:39:20;;;;;;;3.73;2.03;;;14.70;1.00;;;;;;5032650;28;20962;-71
2023/03/23 02:41:51;;;;;;;6.50;2.20;;;14.70;1.00;;;;;;5032431;28;20451;-71
2023/03/23 02:44:17;;;;;;;2.50;2.10;;;14.80;1.00;;;;;;5026970;28;20455;-71
2023/03/23 02:46:44;;;;;;;2.17;1.77;;;14.80;1.00;;;;;;5028441;28;20436;-70
2023/03/23 02:49:13;;;;;;;3.07;1.90;;;14.80;1.00;;;;;;5027765;28;20460;-71
2023/03/23 02:51:40;;;;;;;2.03;1.70;;;14.80;1.00;;;;;;5029369;28;20467;-71
2023/03/23 02:54:07;;;;;;;2.17;1.80;;;14.70;1.00;;;;;;5029284;28;20431;-71
2023/03/23 02:56:34;;;;;;;3.43;2.23;;;14.70;1.00;;;;;;5029135;28;20953;-70
2023/03/23 02:58:59;;;;;;;6.03;2.07;;;14.70;1.00;;;;;;5028992;28;20503;-71
2023/03/23 03:01:25;;;;;;;1.83;1.60;;;14.60;1.00;;;;;;5029398;28;20512;-70
2023/03/23 03:03:52;;;;;;;3.23;2.00;;;14.60;1.00;;;;;;5029404;28;20192;-70
2023/03/23 03:06:30;;;;;;;6.10;2.27;;;14.60;1.00;;;;;;5028641;28;20181;-71
2023/03/23 03:09:03;;;;;;;3.37;2.30;;;14.60;1.00;;;;;;5029047;28;20424;-71
2023/03/23 03:11:31;;;;;;;3.87;2.03;;;14.60;1.00;;;;;;5029181;28;20459;-71
2023/03/23 03:14:05;;;;;;;2.60;1.80;;;14.50;1.00;;;;;;5028686;28;20523;-70
2023/03/23 03:16:37;;;;;;;2.53;1.87;;;14.50;1.00;;;;;;5028644;28;20436;-70
2023/03/23 03:19:12;;;;;;;2.67;1.83;;;14.60;1.00;;;;;;5028846;28;20432;-71
2023/03/23 03:21:42;;;;;;;5.37;2.50;;;14.60;1.00;;;;;;5029111;28;20787;-70
2023/03/23 03:24:10;;;;;;;3.60;2.50;;;14.50;1.00;;;;;;5028796;28;20428;-71
2023/03/23 03:26:47;;;;;;;3.40;2.27;;;14.60;1.00;;;;;;5028557;28;20432;-70
2023/03/23 03:29:18;;;;;;;6.00;2.50;;;14.60;1.00;;;;;;5031595;28;20913;-71
2023/03/23 03:31:45;;;;;;;4.93;2.60;;;14.70;1.00;;;;;;5032929;28;20841;-70
2023/03/23 03:34:11;;;;;;;3.20;2.10;;;14.70;1.00;;;;;;5032703;28;20438;-71
2023/03/23 03:36:38;;;;;;;4.83;2.57;;;14.80;1.00;;;;;;5032525;28;20439;-70
2023/03/23 03:39:07;;;;;;;4.27;2.40;;;14.80;1.00;;;;;;5032648;28;20425;-72
2023/03/23 03:41:34;;;;;;;3.20;1.70;;;14.80;1.00;;;;;;5028278;28;20435;-71
2023/03/23 03:44:00;;;;;;;3.83;2.27;;;14.70;1.00;;;;;;5030806;28;20452;-71
2023/03/23 03:46:27;;;;;;;2.57;1.90;;;14.70;1.00;;;;;;5036005;28;20436;-71
2023/03/23 03:48:53;;;;;;;2.07;1.80;;;14.80;1.00;;;;;;5031449;28;20235;-72
2023/03/23 03:51:19;;;;;;;2.57;1.90;;;14.80;1.00;;;;;;5035924;28;20472;-70
2023/03/23 03:53:45;;;;;;;1.90;1.70;;;14.80;1.00;;;;;;5032740;28;20272;-71
2023/03/23 03:56:10;;;;;;;3.67;2.10;;;14.90;1.00;;;;;;5032849;28;23113;-71
2023/03/23 03:58:36;;;;;;;2.57;1.97;;;14.90;1.00;;;;;;5032125;28;20197;-71
2023/03/23 04:01:03;;;;;;;2.87;2.00;;;14.90;1.00;;;;;;5031689;28;20230;-70
2023/03/23 04:03:28;;;;;;;3.83;2.10;;;14.80;1.00;;;;;;5031788;28;20190;-71
2023/03/23 04:05:55;;;;;;;2.23;1.90;;;14.80;1.00;;;;;;5030826;28;20454;-70
2023/03/23 04:08:26;;;;;;;2.80;1.90;;;14.90;1.00;;;;;;5036397;28;20452;-70
2023/03/23 04:10:52;;;;;;;2.10;1.80;;;14.80;1.00;;;;;;5030887;28;20521;-68
2023/03/23 04:13:17;;;;;;;4.10;2.30;;;14.70;1.00;;;;;;5032244;28;20999;-71
2023/03/23 04:15:45;;;;;;;3.30;2.00;;;14.70;1.00;;;;;;5030257;28;20186;-71
2023/03/23 04:18:11;;;;;;;2.40;2.10;;;14.70;1.00;;;;;;5038073;28;20177;-71
2023/03/23 04:20:37;;;;;;;3.20;2.20;;;14.70;1.00;;;;;;5031403;28;20452;-71
2023/03/23 04:23:03;;;;;;;2.50;2.13;;;16.70;1.00;;;;;;5031597;28;20859;-71
2023/03/23 04:25:32;;;;;;;3.00;2.70;;;14.70;1.00;;;;;;5030837;28;20224;-71
2023/03/23 04:28:00;;;;;;;3.03;2.20;;;14.70;1.00;;;;;;5029394;28;20182;-69
2023/03/23 04:30:27;;;;;;;2.30;2.07;;;14.70;1.00;;;;;;5025563;28;20507;-71
2023/03/23 04:32:55;;;;;;;7.63;2.70;;;14.70;1.00;;;;;;5038591;28;20448;-71
2023/03/23 04:35:24;;;;;;;4.23;2.60;;;14.70;1.00;;;;;;5031666;28;20442;-71
2023/03/23 04:37:50;;;;;;;2.67;2.23;;;14.70;1.00;;;;;;5034383;28;20439;-71
2023/03/23 04:40:16;;;;;;;3.97;2.27;;;14.70;1.00;;;;;;5028607;28;20973;-70
2023/03/23 04:42:45;;;;;;;5.20;2.30;;;14.70;1.00;;;;;;5035218;28;20192;-70
2023/03/23 04:45:14;;;;;;;4.80;3.00;;;14.60;1.00;;;;;;5029572;28;20651;-71
2023/03/23 04:47:40;;;;;;;3.13;2.20;;;14.60;1.00;;;;;;5030504;28;20957;-71
2023/03/23 04:50:11;;;;;;;3.33;2.43;;;14.60;1.00;;;;;;5029514;28;20542;-71
2023/03/23 04:52:40;;;;;;;2.40;2.17;;;14.60;1.00;;;;;;5031523;28;20424;-71
2023/03/23 04:55:06;;;;;;;4.27;2.90;;;14.60;1.00;;;;;;5030076;28;20444;-71
2023/03/23 04:57:32;;;;;;;4.50;3.30;;;14.20;1.00;;;;;;5031138;28;20436;-71
2023/03/23 04:59:58;;;;;;;5.17;2.40;;;14.50;1.00;;;;;;5030596;28;20452;-70
2023/03/23 05:02:25;;;;;;;4.60;2.20;;;14.40;1.00;;;;;;5030710;28;20441;-71
2023/03/23 05:04:50;;;;;;;3.10;2.67;;;14.40;1.00;;;;;;5031406;28;20864;-71
2023/03/23 05:07:16;;;;;;;4.50;2.37;;;14.40;1.00;;;;;;5034801;28;20428;-71
2023/03/23 05:09:47;;;;;;;3.10;2.43;;;14.50;1.00;;;;;;5034596;28;20216;-69
2023/03/23 05:12:12;;;;;;;4.40;2.80;;;14.40;1.00;;;;;;5030874;28;20181;-71
2023/03/23 05:14:41;;;;;;;3.27;2.60;;;14.30;1.00;;;;;;5031018;28;20563;-71
2023/03/23 05:17:07;;;;;;;2.50;2.20;;;14.20;1.00;;;;;;5030612;28;20526;-72
2023/03/23 05:19:33;;;;;;;3.03;2.53;;;14.00;1.00;;;;;;5029439;28;20529;-72
2023/03/23 05:22:03;;;;;;;2.93;2.63;;;13.80;1.00;;;;;;5030304;28;20178;-71
2023/03/23 05:24:32;;;;;;;5.17;2.50;;;13.70;1.00;;;;;;5030635;28;20181;-71
2023/03/23 05:26:58;;;;;;;3.30;2.67;;;13.70;1.00;;;;;;5030071;28;20424;-70
2023/03/23 05:29:25;;;;;;;3.27;2.23;;;13.60;1.00;;;;;;5026074;28;20480;-71
2023/03/23 05:31:52;;;;;;;4.37;2.57;;;13.50;1.00;;;;;;5030615;28;20460;-71
2023/03/23 05:34:18;;;;;;;4.37;2.30;;;13.60;1.00;;;;;;5033596;28;20699;-70
2023/03/23 05:36:44;;;;;;;4.70;2.43;;;13.70;1.00;;;;;;5034853;28;20801;-70
2023/03/23 05:39:11;;;;;;;3.97;2.40;;;13.80;1.00;;;;;;5032025;28;20463;-71
2023/03/23 05:41:38;;;;;;;4.00;2.57;;;13.90;1.00;;;;;;5036286;28;20208;-71
2023/03/23 05:44:03;;;;;;;2.90;2.30;;;14.00;1.00;;;;;;5028747;28;20878;-70
2023/03/23 05:46:29;;;;;;;6.23;2.07;;;13.80;1.00;;;;;;5025430;28;20839;-70
2023/03/23 05:48:55;;;;;;;5.93;2.27;;;13.70;1.00;;;;;;5032287;28;20265;-70
2023/03/23 05:51:20;;;;;;;2.47;2.00;;;13.70;1.00;;;;;;5029166;28;20644;-71
2023/03/23 05:53:47;;;;;;;2.70;2.03;;;13.90;1.00;;;;;;5029537;28;20272;-71
2023/03/23 05:56:12;;;;;;;2.70;1.80;;;14.00;1.00;;;;;;5027981;28;20543;-70
2023/03/23 05:58:38;;;;;;;2.87;1.90;;;14.20;1.00;;;;;;5028020;28;20440;-70
2023/03/23 06:01:07;;;;;;;2.13;1.90;;;14.30;1.00;;;;;;5028223;28;20209;-70
2023/03/23 06:03:35;;;;;;;2.60;1.57;;;14.40;1.00;;;;;;5029063;28;20647;-71
2023/03/23 06:06:02;;;;;;;2.40;1.90;;;14.60;1.00;;;;;;5026638;28;20428;-71
2023/03/23 06:08:28;;;;;;;2.17;1.63;;;14.60;1.00;;;;;;5029091;28;20436;-70
2023/03/23 06:10:53;;;;;;;1.90;1.70;;;14.70;1.00;;;;;;5029771;28;20476;-71
2023/03/23 06:13:19;;;;;;;2.43;1.70;;;14.70;1.00;;;;;;5027270;28;20194;-71
2023/03/23 06:15:45;;;;;;;3.13;1.77;;;14.80;1.00;;;;;;5028956;28;20190;-71
2023/03/23 06:18:12;;;;;;;4.57;2.10;;;14.80;1.00;;;;;;5028715;28;20189;-70
2023/03/23 06:20:38;;;;;;;2.00;1.67;;;14.90;1.00;;;;;;5035397;28;20228;-71
2023/03/23 06:23:04;;;;;;;3.77;2.33;;;15.00;1.00;;;;;;5028920;28;20436;-71
2023/03/23 06:25:30;;;;;;;3.40;2.00;;;15.00;1.00;;;;;;5028450;28;20443;-70
2023/03/23 06:27:55;;;;;;;3.40;1.80;;;15.10;1.00;;;;;;5032022;28;20189;-71
2023/03/23 06:30:21;;;;;;;2.00;1.77;;;15.10;1.00;;;;;;5030340;28;20209;-71
2023/03/23 06:32:47;;;;;;;3.00;1.80;;;15.10;1.00;;;;;;5029851;28;20181;-71
2023/03/23 06:35:14;;;;;;;3.93;1.90;;;15.20;1.00;;;;;;5030345;28;20194;-70
2023/03/23 06:37:40;;;;;;;2.17;1.90;;;15.20;1.00;;;;;;5029592;28;20546;-70
2023/03/23 06:40:08;;;;;;;2.57;1.80;;;15.20;1.00;;;;;;5028606;28;20539;-71
2023/03/23 06:42:33;;;;;;;2.67;1.70;;;15.20;1.00;;;;;;5029598;28;20182;-72
2023/03/23 06:45:00;;;;;;;2.17;1.80;;;15.30;1.00;;;;;;5025794;28;20822;-69
2023/03/23 06:47:29;;;;;;;3.13;1.80;;;15.30;1.00;;;;;;5029721;28;20192;-70
2023/03/23 06:49:55;;;;;;;2.40;2.07;;;15.40;1.00;;;;;;5026227;28;20475;-70
2023/03/23 06:52:22;;;;;;;2.10;1.90;;;15.40;1.00;;;;;;5025373;28;20444;-72
2023/03/23 06:54:48;;;;;;;2.57;1.80;;;15.40;1.00;;;;;;5037700;28;20424;-72
2023/03/23 06:57:14;;;;;;;2.20;2.00;;;15.50;1.00;;;;;;5030945;28;20903;-71
2023/03/23 06:59:41;;;;;;;2.70;1.63;;;15.40;1.00;;;;;;5035575;28;20455;-72
2023/03/23 07:02:09;;;;;;;1.97;1.80;;;15.40;1.00;;;;;;5028959;28;20839;-72
2023/03/23 07:04:35;;;;;;;4.03;1.90;;;16.00;1.00;;;;;;5029242;28;20523;-72
2023/03/23 07:07:01;;;;;;;2.60;1.90;;;15.40;1.00;;;;;;5029311;28;20453;-72
2023/03/23 07:09:27;;;;;;;2.40;1.63;;;15.40;1.00;;;;;;5029587;28;20248;-73
2023/03/23 07:11:52;;;;;;;3.37;2.00;;;15.50;1.00;;;;;;5033652;28;20479;-73
2023/03/23 07:14:18;;;;;;;2.83;1.70;;;15.70;1.00;;;;;;5029202;28;20549;-73
2023/03/23 07:16:44;;;;;;;3.37;1.90;;;15.70;1.00;;;;;;5029679;28;20591;-73
2023/03/23 07:19:09;;;;;;;2.00;1.80;;;15.70;1.00;;;;;;5027638;28;20228;-72
2023/03/23 07:21:35;;;;;;;3.40;1.70;;;15.60;1.00;;;;;;5029462;28;20208;-73
2023/03/23 07:24:01;;;;;;;2.20;1.87;;;15.60;1.00;;;;;;5028429;28;20197;-72
2023/03/23 07:26:26;;;;;;;2.83;2.10;;;15.40;1.00;;;;;;5029411;28;20698;-72
2023/03/23 07:28:52;;;;;;;2.83;1.87;;;15.10;1.00;;;;;;5029263;28;20192;-73
2023/03/23 07:31:17;;;;;;;3.50;1.77;;;15.10;1.00;;;;;;5028528;28;20209;-73
2023/03/23 07:33:43;;;;;;;1.80;1.60;;;15.00;1.00;;;;;;5028178;28;20674;-73
2023/03/23 07:36:09;;;;;;;2.27;1.70;;;15.00;1.00;;;;;;5027333;28;20649;-73
2023/03/23 07:38:35;;;;;;;3.97;1.93;;;15.00;1.00;;;;;;5026541;28;20174;-72
2023/03/23 07:41:01;;;;;;;3.53;1.80;;;15.00;1.00;;;;;;5022075;28;20189;-72
2023/03/23 07:43:27;;;;;;;1.70;1.53;;;15.00;1.00;;;;;;5027014;28;20482;-74
2023/03/23 07:45:53;;;;;;;1.87;1.60;;;15.10;1.00;;;;;;5028214;28;20440;-72
2023/03/23 07:48:18;;;;;;;2.70;1.90;;;;;;;;;;5028981;28;20830;-73
2023/03/23 07:50:44;;;;;;;2.67;1.60;;;15.20;1.00;;;;;;5027871;28;20216;-73
2023/03/23 07:53:10;;;;;;;5.67;1.53;;;15.20;1.00;;;;;;5027638;28;20272;-72
2023/03/23 07:55:37;;;;;;;1.53;1.43;;;15.30;1.00;;;;;;5028271;28;20181;-72
2023/03/23 07:58:03;;;;;;;1.50;1.40;;;15.30;1.00;;;;;;5028155;28;20213;-73
2023/03/23 08:00:29;;;;;;;3.03;1.90;;;15.40;1.00;;;;;;5027710;28;20482;-72
2023/03/23 08:02:57;;;;;;;2.00;1.67;;;15.60;1.00;;;;;;5022667;28;20443;-71
2023/03/23 08:05:25;;;;;;;2.40;1.70;;;15.70;1.00;;;;;;5028866;28;20441;-74
2023/03/23 08:07:53;;;;;;;2.90;1.67;;;15.90;1.00;;;;;;5044718;28;21016;-71
2023/03/23 08:10:21;;;;;;;3.20;1.47;;;16.30;1.00;;;;;;5027492;28;20472;-72
2023/03/23 08:12:51;;;;;;;2.30;1.60;;;15.90;1.00;;;;;;5027997;28;20436;-74
2023/03/23 08:15:17;;;;;;;1.93;1.67;;;16.00;1.00;;;;;;5029222;28;20424;-72
2023/03/23 08:17:43;;;;;;;3.63;1.60;;;16.10;1.00;;;;;;5031193;28;20529;-73
2023/03/23 08:20:13;;;;;;;3.93;1.60;;;16.10;1.00;;;;;;5030203;28;20300;-72
2023/03/23 08:22:44;;;;;;;3.43;1.60;;;16.10;1.00;;;;;;5032310;28;20196;-74
2023/03/23 08:25:12;;;;;;;3.17;1.80;;;16.20;1.00;;;;;;5030947;28;20436;-74
2023/03/23 08:27:41;;;;;;;2.50;1.60;;;16.30;1.00;;;;;;5031709;28;20440;-72
2023/03/23 08:30:08;;;;;;;2.17;1.70;;;16.30;1.00;;;;;;5031793;28;20471;-72
2023/03/23 08:32:34;;;;;;;2.40;1.90;;;16.30;1.00;;;;;;5034189;28;20439;-71
2023/03/23 08:35:00;;;;;;;4.13;2.23;;;16.30;1.00;;;;;;5031055;28;20432;-69
2023/03/23 08:37:25;;;;;;;3.60;1.70;;;16.10;1.00;;;;;;5031492;28;20432;-71
2023/03/23 08:39:54;;;;;;;3.30;1.90;;;16.20;1.00;;;;;;5028748;28;20296;-72
2023/03/23 08:42:20;;;;;;;2.53;1.87;;;16.30;1.00;;;;;;5032227;28;20182;-71
2023/03/23 08:44:45;;;;;;;1.83;1.63;;;16.50;1.00;;;;;;5033011;28;20961;-72
2023/03/23 08:47:11;;;;;;;3.73;1.97;;;16.40;1.00;;;;;;5030256;28;20679;-71
2023/03/23 08:49:37;;;;;;;2.93;1.60;;;16.50;1.00;;;;;;5034207;28;20205;-69
2023/03/23 08:52:03;;;;;;;3.87;1.90;;;16.50;1.00;;;;;;5029264;28;20201;-71
2023/03/23 08:54:30;;;;;;;2.53;1.90;;;15.50;1.00;;;;;;5030446;28;20178;-71
2023/03/23 08:56:58;;;;;;;3.20;2.00;;;16.80;1.00;;;;;;5041437;28;20433;-72
2023/03/23 08:59:25;;;;;;;3.03;1.80;;;16.80;1.00;;;;;;5030468;28;20444;-71
2023/03/23 09:01:50;;;;;;;3.40;2.33;;;17.10;1.00;;;;;;5034400;28;20444;-72
2023/03/23 09:04:16;;;;;;;2.30;2.03;;;17.10;1.00;;;;;;5028412;28;20451;-74
2023/03/23 09:06:42;;;;;;;3.63;2.03;;;17.40;1.00;;;;;;5029674;28;20182;-69
2023/03/23 09:09:09;;;;;;;3.30;2.00;;;17.60;1.00;;;;;;5027702;28;20981;-72
2023/03/23 09:11:35;;;;;;;4.40;1.97;;;17.60;1.00;;;;;;5032610;28;21005;-72
2023/03/23 09:14:04;;;;;;;2.27;1.90;;;17.40;1.00;;;;;;5032477;28;20558;-72
2023/03/23 09:16:29;;;;;;;3.00;2.40;;;17.30;1.00;;;;;;5026798;28;20464;-71
2023/03/23 09:18:56;;;;;;;4.13;2.30;;;17.40;1.00;;;;;;5030580;28;20954;-72
2023/03/23 09:21:23;;;;;;;3.03;1.90;;;17.30;1.00;;;;;;5030410;28;20339;-71
2023/03/23 09:23:48;;;;;;;3.00;2.20;;;17.20;1.00;;;;;;5031222;28;20455;-72
2023/03/23 09:26:14;;;;;;;2.33;2.07;;;17.10;1.00;;;;;;5027580;28;20444;-72
2023/03/23 09:28:40;;;;;;;3.27;2.10;;;16.90;1.00;;;;;;5030218;28;20182;-72
2023/03/23 09:31:06;;;;;;;2.13;1.83;;;17.00;1.00;;;;;;5030330;28;20212;-72
2023/03/23 09:33:35;;;;;;;2.63;2.03;;;17.00;1.00;;;;;;5034887;28;20267;-72
2023/03/23 09:36:02;;;;;;;4.23;2.37;;;16.90;1.00;;;;;;5035846;28;20264;-69
2023/03/23 09:38:27;;;;;;;3.47;2.30;;;16.90;1.00;;;;;;5029201;28;21003;-72
2023/03/23 09:41:01;;;;;;;3.90;2.40;;;17.10;1.00;;;;;;5031197;28;20535;-72
2023/03/23 09:43:45;;;;;;;2.73;2.30;;;17.30;1.00;;;;;;5037157;28;20178;-72
2023/03/23 09:46:32;;;;;;;4.37;2.13;;;17.30;1.00;;;;;;5019593;28;20489;-72
2023/03/23 09:49:24;;;;;;;3.73;2.43;;;17.10;1.00;;;;;;5022763;28;20435;-69
2023/03/23 09:51:54;;;;;;;5.23;2.33;;;17.00;1.00;;;;;;5026926;28;20977;-71
2023/03/23 09:54:26;;;;;;;5.53;2.43;;;17.20;1.00;;;;;;5027924;28;20441;-72
2023/03/23 09:56:52;;;;;;;3.50;2.50;;;17.40;1.00;;;;;;5018281;28;20736;-73
2023/03/23 09:59:41;;;;;;;3.30;2.27;;;17.60;1.00;;;;;;5027300;28;20460;-71
2023/03/23 10:02:24;;;;;;;2.47;2.10;;;17.30;1.00;;;;;;5027654;28;20498;-71
2023/03/23 10:04:56;;;;;;;4.00;2.30;;;16.90;1.00;;;;;;5025896;28;20443;-73
2023/03/23 10:07:27;;;;;;;3.17;2.20;;;16.70;1.00;;;;;;5027600;28;20463;-72
2023/03/23 10:09:56;;;;;;;2.60;1.87;;;16.60;1.00;;;;;;5027909;28;20471;-73
2023/03/23 10:12:22;;;;;;;2.40;2.17;;;16.60;1.00;;;;;;5029635;28;20542;-72
2023/03/23 10:15:17;;;;;;;2.93;2.00;;;16.50;1.00;;;;;;5028937;28;20895;-72
2023/03/23 10:17:59;;;;;;;2.90;2.07;;;16.60;1.00;;;;;;5028835;28;20667;-72
2023/03/23 10:20:34;;;;;;;3.00;2.20;;;16.80;1.00;;;;;;5028736;28;20468;-72
2023/03/23 10:23:18;;;;;;;2.63;1.97;;;17.10;1.00;;;;;;5042036;28;20796;-73
2023/03/23 10:25:56;;;;;;;2.53;2.07;;;17.50;1.00;;;;;;5024534;28;20817;-71
2023/03/23 10:28:37;;;;;;;2.63;2.07;;;17.70;1.00;;;;;;5029779;28;20799;-72
2023/03/23 10:31:05;;;;;;;2.57;2.20;;;17.80;1.00;;;;;;5028293;28;20942;-73
2023/03/23 10:33:42;;;;;;;2.20;1.90;;;17.70;1.00;;;;;;5034716;28;20806;-72
2023/03/23 10:36:31;;;;;;;2.43;2.10;;;17.60;1.00;;;;;;5028856;28;20460;-75
2023/03/23 10:39:14;;;;;;;3.70;2.13;;;17.40;1.00;;;;;;5029649;28;20438;-73
2023/03/23 10:41:40;;;;;;;3.53;1.87;;;17.40;1.00;;;;;;5030421;28;20881;-73
2023/03/23 10:44:14;;;;;;;2.57;1.70;;;17.20;1.00;;;;;;5027050;28;20441;-73
2023/03/23 10:46:48;;;;;;;2.30;1.73;;;17.20;1.00;;;;;;5033850;28;20443;-72
2023/03/23 10:49:23;;;;;;;2.60;1.90;;;16.90;1.00;;;;;;5028095;28;20454;-73
2023/03/23 10:52:04;;;;;;;1.80;1.60;;;16.90;1.00;;;;;;5032018;28;20463;-72
2023/03/23 10:54:40;;;;;;;4.07;2.37;;;17.00;1.00;;;;;;5028313;28;20416;-73
2023/03/23 10:57:33;;;;;;;3.23;1.60;;;17.20;1.00;;;;;;5037502;28;20435;-73
2023/03/23 11:00:06;;;;;;;2.20;1.90;;;17.40;1.00;;;;;;5033130;28;20456;-72
2023/03/23 11:02:43;;;;;;;7.47;2.20;;;17.40;1.00;;;;;;5029093;28;20431;-72
2023/03/23 11:05:26;;;;;;;3.80;2.03;;;17.10;1.00;;;;;;5026785;28;20451;-72
2023/03/23 11:07:56;;;;;;;2.20;1.57;;;17.00;1.00;;;;;;5033069;28;20428;-73
2023/03/23 11:10:36;;;;;;;1.83;1.67;;;16.70;1.00;;;;;;5031640;28;20643;-73
2023/03/23 11:13:04;;;;;;;2.37;1.70;;;17.00;1.00;;;;;;5029717;28;20453;-69
2023/03/23 11:15:37;;;;;;;3.00;1.93;;;16.90;1.00;;;;;;5034745;28;20930;-72
2023/03/23 11:18:07;;;;;;;2.80;1.87;;;16.70;1.00;;;;;;5029342;28;20428;-72
2023/03/23 11:20:41;;;;;;;2.60;1.70;;;16.50;1.00;;;;;;5027368;28;20678;-72
2023/03/23 11:23:22;;;;;;;3.60;1.83;;;16.40;1.00;;;;;;5029563;28;20790;-73
2023/03/23 11:25:56;;;;;;;6.93;2.47;;;16.20;1.00;;;;;;5032048;28;20447;-73
2023/03/23 11:28:25;;;;;;;3.10;1.80;;;16.00;1.00;;;;;;5030049;28;20428;-72
2023/03/23 11:30:54;;;;;;;2.10;1.70;;;16.00;1.00;;;;;;5026764;28;20606;-72
2023/03/23 11:33:19;;;;;;;2.00;1.80;;;16.10;1.00;;;;;;5030152;28;20428;-72
2023/03/23 11:35:46;;;;;;;2.10;1.63;;;16.30;1.00;;;;;;5039189;28;20509;-71
2023/03/23 11:38:18;;;;;;;2.10;1.90;;;16.70;1.00;;;;;;5029507;28;20659;-72
2023/03/23 11:40:49;;;;;;;2.63;2.00;;;16.80;1.00;;;;;;5027819;28;20795;-71
2023/03/23 11:43:25;;;;;;;2.13;1.90;;;16.80;1.00;;;;;;5027399;28;20440;-72
2023/03/23 11:46:04;;;;;;;3.70;2.17;;;16.90;1.00;;;;;;5030988;28;20524;-72
2023/03/23 11:49:08;;;;;;;2.80;1.93;;;16.80;1.00;;;;;;5030362;28;20479;-72
2023/03/23 11:51:41;;;;;;;5.80;2.30;;;16.80;1.00;;;;;;5044194;28;20503;-72
2023/03/23 11:54:31;;;;;;;7.00;2.10;;;16.70;1.00;;;;;;5036762;28;20447;-72
2023/03/23 11:56:57;;;;;;;2.63;2.00;;;16.70;1.00;;;;;;5031915;28;20483;-72
2023/03/23 11:59:33;;;;;;;2.93;1.90;;;16.60;1.00;;;;;;5028970;28;20456;-73
2023/03/23 12:02:23;;;;;;;3.67;2.40;;;16.60;1.00;;;;;;5032321;28;20235;-72
2023/03/23 12:04:56;;;;;;;4.90;2.20;;;16.40;1.00;;;;;;5031092;28;20440;-73
2023/03/23 12:07:37;;;;;;;2.90;1.97;;;16.40;1.00;;;;;;5037043;28;20885;-72
2023/03/23 12:10:27;;;;;;;3.37;2.00;;;16.40;1.00;;;;;;5031067;28;20447;-70
2023/03/23 12:13:20;;;;;;;2.20;1.70;;;16.40;1.00;;;;;;5025818;28;20795;-73
2023/03/23 12:16:10;;;;;;;2.20;1.80;;;16.50;1.00;;;;;;5031000;28;20440;-73
2023/03/23 12:19:11;;;;;;;2.30;1.60;;;16.30;1.00;;;;;;5025102;28;20508;-72
2023/03/23 12:21:48;;;;;;;2.60;1.80;;;16.10;1.00;;;;;;5032041;28;20535;-72
2023/03/23 12:24:23;;;;;;;2.03;1.67;;;16.10;1.00;;;;;;5034636;28;20455;-72
2023/03/23 12:27:33;;;;;;;2.70;1.93;;;16.20;1.00;;;;;;5032371;28;20869;-72
2023/03/23 12:30:09;;;;;;;2.10;1.67;;;16.20;1.00;;;;;;4995192;28;20996;-72
2023/03/23 12:33:05;;;;;;;2.10;1.77;;;16.20;1.00;;;;;;5033046;28;20477;-73
2023/03/23 12:35:45;;;;;;;1.90;1.70;;;16.10;1.00;;;;;;5023102;28;20428;-72
2023/03/23 12:38:36;;;;;;;2.83;1.90;;;16.10;1.00;;;;;;5032159;28;20440;-73
2023/03/23 12:41:26;;;;;;;3.50;2.37;;;16.00;1.00;;;;;;5030952;28;20463;-73
2023/03/23 12:43:58;;;;;;;2.20;1.90;;;15.90;1.00;;;;;;5041410;28;20455;-72
2023/03/23 12:46:36;;;;;;;4.00;1.90;;;16.00;1.00;;;;;;5032123;28;20436;-72
2023/03/23 12:49:30;;;;;;;1.80;1.70;;;16.00;1.00;;;;;;5030990;28;20883;-70
2023/03/23 12:52:24;;;;;;;3.47;2.57;;;16.00;1.00;;;;;;5083871;22;20471;-75
2023/03/23 12:55:04;;;;;;;5.90;1.97;;;16.00;1.00;;;;;;5006135;28;20463;-76
2023/03/23 12:57:51;;;;;;;1.97;1.50;;;16.10;1.00;;;;;;5024016;28;20437;-76
2023/03/23 13:00:30;;;;;;;2.40;1.80;;;17.30;1.00;;;;;;5007822;28;20445;-75
2023/03/23 13:03:14;;;;;;;2.90;2.20;;;16.00;1.00;;;;;;4995145;28;20513;-76
2023/03/23 13:05:54;;;;;;;2.67;2.00;;;16.10;1.00;;;;;;4992538;28;20761;-73
2023/03/23 13:08:28;;;;;;;2.40;1.97;;;16.10;1.00;;;;;;4979985;28;20863;-73
2023/03/23 13:10:58;;;;;;;3.40;1.93;;;16.00;1.00;;;;;;4988245;28;20481;-75
2023/03/23 13:13:41;;;;;;;2.57;1.90;;;16.00;1.00;;;;;;4990596;28;20454;-75
2023/03/23 13:16:10;;;;;;;5.80;1.93;;;16.10;1.00;;;;;;4986261;28;20445;-74
2023/03/23 13:18:56;;;;;;;2.10;1.70;;;16.20;1.00;;;;;;4995058;28;20840;-74